createdAt,value
2022-09-12T00:01:22.393Z,4.10
2022-09-12T00:03:52.669Z,3.87
2022-09-12T00:06:26.423Z,3.90
2022-09-12T00:08:58.545Z,3.87
2022-09-12T00:11:26.581Z,4.13
2022-09-12T00:14:00.261Z,3.70
2022-09-12T00:16:29.120Z,3.87
2022-09-12T00:18:55.946Z,3.47
2022-09-12T00:21:23.463Z,3.93
2022-09-12T00:23:50.790Z,3.70
2022-09-12T00:26:19.177Z,4.07
2022-09-12T00:28:46.497Z,3.70
2022-09-12T00:31:20.468Z,3.63
2022-09-12T00:33:47.579Z,3.60
2022-09-12T00:36:18.121Z,3.67
2022-09-12T00:38:46.068Z,3.90
2022-09-12T00:41:26.395Z,3.40
2022-09-12T00:44:01.371Z,3.80
2022-09-12T00:46:41.950Z,3.50
2022-09-12T00:49:26.525Z,3.63
2022-09-12T00:52:10.640Z,3.47
2022-09-12T00:54:52.971Z,3.80
2022-09-12T00:57:22.426Z,3.93
2022-09-12T01:00:20.416Z,3.97
2022-09-12T01:02:51.788Z,4.33
2022-09-12T01:05:18.979Z,3.87
2022-09-12T01:07:48.624Z,3.60
2022-09-12T01:10:15.838Z,4.40
2022-09-12T01:12:44.194Z,3.70
2022-09-12T01:15:11.828Z,4.03
2022-09-12T01:18:09.015Z,4.03
2022-09-12T01:20:46.124Z,4.13
2022-09-12T01:23:12.937Z,3.63
2022-09-12T01:26:03.262Z,3.70
2022-09-12T01:28:29.869Z,4.00
2022-09-12T01:31:25.465Z,4.07
2022-09-12T01:34:14.162Z,4.37
2022-09-12T01:36:51.327Z,4.10
2022-09-12T01:39:32.497Z,4.00
2022-09-12T01:42:16.867Z,3.83
2022-09-12T01:44:57.423Z,3.80
2022-09-12T01:47:39.171Z,4.17
2022-09-12T01:50:16.246Z,4.27
2022-09-12T01:52:52.179Z,4.27
2022-09-12T01:55:56.956Z,4.07
2022-09-12T01:58:29.390Z,4.40
2022-09-12T02:01:03.517Z,4.30
2022-09-12T02:03:44.569Z,3.93
2022-09-12T02:06:44.432Z,3.80
2022-09-12T02:09:32.100Z,4.13
2022-09-12T02:12:01.558Z,4.13
2022-09-12T02:14:42.610Z,4.20
2022-09-12T02:17:16.687Z,4.33
2022-09-12T02:19:58.341Z,3.87
2022-09-12T02:22:29.349Z,4.03
2022-09-12T02:24:59.750Z,4.57
2022-09-12T02:27:37.749Z,4.13
2022-09-12T02:30:06.532Z,4.27
2022-09-12T02:32:38.175Z,5.07
2022-09-12T02:35:21.457Z,4.07
2022-09-12T02:38:07.391Z,4.23
2022-09-12T02:40:35.706Z,4.17
2022-09-12T02:43:04.649Z,3.70
2022-09-12T02:45:34.379Z,4.37
2022-09-12T02:48:13.615Z,4.13
2022-09-12T02:50:41.296Z,4.20
2022-09-12T02:53:09.297Z,4.13
2022-09-12T02:55:38.522Z,3.97
2022-09-12T02:58:08.689Z,4.47
2022-09-12T03:00:46.729Z,4.10
2022-09-12T03:03:22.303Z,3.77
2022-09-12T03:05:48.959Z,3.93
2022-09-12T03:09:01.458Z,3.93
2022-09-12T03:12:11.906Z,4.20
2022-09-12T03:15:10.874Z,3.53
2022-09-12T03:17:44.024Z,4.00
2022-09-12T03:20:16.891Z,3.90
2022-09-12T03:22:54.641Z,4.00
2022-09-12T03:25:23.861Z,4.10
2022-09-12T03:28:06.267Z,3.73
2022-09-12T03:30:39.488Z,3.60
2022-09-12T03:33:06.430Z,3.90
2022-09-12T03:35:33.158Z,3.80
2022-09-12T03:37:59.830Z,3.50
2022-09-12T03:40:26.731Z,4.03
2022-09-12T03:42:53.765Z,3.90
2022-09-12T03:45:20.588Z,3.80
2022-09-12T03:47:47.290Z,4.07
2022-09-12T03:50:14.103Z,4.13
2022-09-12T03:52:40.749Z,4.40
2022-09-12T03:55:07.888Z,4.43
2022-09-12T03:57:34.569Z,4.10
2022-09-12T04:00:02.135Z,4.07
2022-09-12T04:02:29.274Z,4.67
2022-09-12T04:04:55.974Z,4.47
2022-09-12T04:07:22.718Z,4.60
2022-09-12T04:09:49.569Z,4.10
2022-09-12T04:12:16.414Z,4.20
2022-09-12T04:14:43.134Z,4.07
2022-09-12T04:17:09.835Z,4.40
2022-09-12T04:19:36.595Z,4.20
2022-09-12T04:22:04.851Z,4.53
2022-09-12T04:24:31.577Z,4.40
2022-09-12T04:26:58.647Z,4.50
2022-09-12T04:29:25.396Z,4.03
2022-09-12T04:31:52.060Z,3.70
2022-09-12T04:34:18.802Z,4.23
2022-09-12T04:36:45.482Z,4.10
2022-09-12T04:39:12.536Z,3.80
2022-09-12T04:41:42.032Z,4.17
2022-09-12T04:44:12.688Z,4.13
2022-09-12T04:46:44.992Z,4.10
2022-09-12T04:49:13.199Z,4.00
2022-09-12T04:51:41.905Z,4.13
2022-09-12T04:54:16.327Z,3.77
2022-09-12T04:56:45.336Z,4.43
2022-09-12T04:59:13.838Z,4.53
2022-09-12T05:01:40.543Z,4.30
2022-09-12T05:04:07.834Z,4.27
2022-09-12T05:06:37.222Z,6.47
2022-09-12T05:09:06.095Z,6.90
2022-09-12T05:12:02.663Z,7.03
2022-09-12T05:14:22.828Z,7.33
2022-09-12T05:16:50.010Z,7.77
2022-09-12T05:19:17.189Z,8.33
2022-09-12T05:21:43.898Z,8.77
2022-09-12T05:24:11.255Z,8.10
2022-09-12T05:26:38.263Z,8.13
2022-09-12T05:29:07.025Z,8.00
2022-09-12T05:31:34.700Z,7.73
2022-09-12T05:34:01.768Z,8.07
2022-09-12T05:36:31.193Z,8.43
2022-09-12T05:38:59.873Z,8.50
2022-09-12T05:41:31.074Z,7.30
2022-09-12T05:44:00.387Z,7.70
2022-09-12T05:46:35.404Z,7.47
2022-09-12T05:49:07.226Z,8.37
2022-09-12T05:51:38.001Z,7.27
2022-09-12T05:54:06.002Z,7.50
2022-09-12T05:56:34.964Z,7.93
2022-09-12T05:59:13.115Z,8.20
2022-09-12T06:01:40.395Z,7.57
2022-09-12T06:04:07.985Z,7.27
2022-09-12T06:06:41.785Z,7.53
2022-09-12T06:09:09.210Z,7.83
2022-09-12T06:11:37.388Z,8.57
2022-09-12T06:14:04.667Z,8.33
2022-09-12T06:16:33.376Z,8.27
2022-09-12T06:19:03.422Z,8.50
2022-09-12T06:21:31.341Z,8.53
2022-09-12T06:24:01.416Z,7.73
2022-09-12T06:26:29.268Z,7.93
2022-09-12T06:28:57.893Z,8.80
2022-09-12T06:31:28.796Z,8.43
2022-09-12T06:33:57.403Z,8.07
2022-09-12T06:36:26.792Z,8.67
2022-09-12T06:39:02.661Z,8.30
2022-09-12T06:41:31.266Z,8.57
2022-09-12T06:43:58.651Z,8.57
2022-09-12T06:46:26.439Z,8.07
2022-09-12T06:48:55.476Z,8.10
2022-09-12T06:51:22.266Z,8.60
2022-09-12T06:53:50.022Z,8.07
2022-09-12T06:56:19.754Z,7.70
2022-09-12T06:58:48.022Z,7.18
2022-09-12T07:01:26.692Z,8.48
2022-09-12T07:03:55.917Z,7.70
2022-09-12T07:06:29.783Z,7.97
2022-09-12T07:08:58.647Z,7.78
2022-09-12T07:11:28.251Z,7.30
2022-09-12T07:13:56.539Z,7.82
2022-09-12T07:16:23.866Z,7.28
2022-09-12T07:18:52.496Z,7.80
2022-09-12T07:21:19.731Z,8.10
2022-09-12T07:23:47.498Z,7.50
2022-09-12T07:26:16.284Z,7.07
2022-09-12T07:28:43.900Z,6.70
2022-09-12T07:31:13.947Z,6.88
2022-09-12T07:33:41.776Z,6.45
2022-09-12T07:36:16.356Z,6.30
2022-09-12T07:38:44.004Z,6.72
2022-09-12T07:41:12.777Z,6.57
2022-09-12T07:43:39.776Z,6.38
2022-09-12T07:46:06.637Z,5.95
2022-09-12T07:48:33.881Z,6.55
2022-09-12T07:51:06.193Z,6.28
2022-09-12T07:53:35.256Z,5.88
2022-09-12T07:56:03.174Z,5.85
2022-09-12T07:58:30.615Z,6.20
2022-09-12T08:01:25.746Z,6.00
2022-09-12T08:03:58.171Z,5.00
2022-09-12T08:06:26.988Z,5.75
2022-09-12T08:08:56.128Z,5.57
2022-09-12T08:11:24.263Z,5.35
2022-09-12T08:13:55.424Z,4.80
2022-09-12T08:16:25.361Z,4.70
2022-09-12T08:18:52.116Z,4.65
2022-09-12T08:21:21.848Z,4.63
2022-09-12T08:23:52.802Z,4.07
2022-09-12T08:26:19.570Z,3.90
2022-09-12T08:28:46.913Z,4.57
2022-09-12T08:31:16.731Z,4.00
2022-09-12T08:33:44.061Z,3.92
2022-09-12T08:36:16.379Z,4.13
2022-09-12T08:38:45.189Z,3.58
2022-09-12T08:41:17.689Z,3.70
2022-09-12T08:43:57.068Z,3.25
2022-09-12T08:46:36.130Z,3.40
2022-09-12T08:49:04.301Z,3.83
2022-09-12T08:51:34.599Z,3.70
2022-09-12T08:54:04.617Z,3.55
2022-09-12T08:56:37.221Z,3.63
2022-09-12T08:59:03.895Z,3.85
2022-09-12T09:01:42.786Z,3.65
2022-09-12T09:04:50.269Z,3.67
2022-09-12T09:07:33.122Z,3.50
2022-09-12T09:10:19.609Z,4.10
2022-09-12T09:13:01.937Z,3.95
2022-09-12T09:15:31.396Z,3.40
2022-09-12T09:18:04.255Z,3.65
2022-09-12T09:20:36.326Z,2.90
2022-09-12T09:23:12.012Z,3.20
2022-09-12T09:25:58.145Z,3.30
2022-09-12T09:28:39.879Z,3.55
2022-09-12T09:31:16.262Z,3.47
2022-09-12T09:33:43.725Z,3.50
2022-09-12T09:36:49.438Z,3.40
2022-09-12T09:40:03.498Z,3.60
2022-09-12T09:42:54.748Z,3.15
2022-09-12T09:45:24.470Z,3.15
2022-09-12T09:48:10.243Z,3.30
2022-09-12T09:50:37.572Z,3.17
2022-09-12T09:53:09.208Z,3.22
2022-09-12T09:55:42.250Z,3.03
2022-09-12T09:58:08.951Z,2.90
2022-09-12T10:00:37.950Z,3.13
2022-09-12T10:03:23.686Z,3.05
2022-09-12T10:06:08.169Z,2.55
2022-09-12T10:08:37.633Z,2.78
2022-09-12T10:11:16.198Z,2.60
2022-09-12T10:13:53.228Z,2.60
2022-09-12T10:16:24.350Z,2.38
2022-09-12T10:18:52.851Z,3.15
2022-09-12T10:21:47.544Z,2.72
2022-09-12T10:24:28.578Z,2.42
2022-09-12T10:27:05.613Z,2.45
2022-09-12T10:29:36.183Z,2.83
2022-09-12T10:32:07.222Z,2.28
2022-09-12T10:34:38.200Z,2.40
2022-09-12T10:37:07.990Z,2.78
2022-09-12T10:39:36.322Z,2.83
2022-09-12T10:42:05.446Z,1.88
2022-09-12T10:44:35.375Z,2.55
2022-09-12T10:47:21.410Z,2.25
2022-09-12T10:49:48.149Z,2.35
2022-09-12T10:52:23.295Z,2.05
2022-09-12T10:54:53.621Z,1.98
2022-09-12T10:57:38.281Z,1.77
2022-09-12T11:00:18.026Z,2.00
2022-09-12T11:03:10.900Z,2.05
2022-09-12T11:06:00.533Z,1.98
2022-09-12T11:08:49.003Z,2.20
2022-09-12T11:11:45.778Z,2.13
2022-09-12T11:14:33.478Z,1.77
2022-09-12T11:17:12.874Z,1.75
2022-09-12T11:19:59.505Z,2.28
2022-09-12T11:22:38.107Z,2.65
2022-09-12T11:25:22.422Z,1.88
2022-09-12T11:28:00.715Z,1.77
2022-09-12T11:30:39.149Z,1.60
2022-09-12T11:33:25.000Z,2.28
2022-09-12T11:35:55.422Z,2.17
2022-09-12T11:38:25.503Z,1.85
2022-09-12T11:41:00.043Z,2.22
2022-09-12T11:43:58.776Z,2.30
2022-09-12T11:46:34.519Z,2.00
2022-09-12T11:49:40.152Z,1.58
2022-09-12T11:52:19.977Z,1.75
2022-09-12T11:55:05.428Z,1.88
2022-09-12T11:57:45.760Z,1.85
2022-09-12T12:00:22.944Z,1.90
2022-09-12T12:03:20.395Z,1.75
2022-09-12T12:05:55.949Z,1.92
2022-09-12T12:08:24.762Z,1.85
2022-09-12T12:10:56.402Z,1.83
2022-09-12T12:13:31.225Z,1.98
2022-09-12T12:16:22.059Z,1.90
2022-09-12T12:18:55.823Z,1.90
2022-09-12T12:21:50.861Z,1.65
2022-09-12T12:24:20.385Z,1.75
2022-09-12T12:26:59.913Z,1.55
2022-09-12T12:29:43.591Z,1.95
2022-09-12T12:32:10.873Z,2.00
2022-09-12T12:34:44.919Z,2.15
2022-09-12T12:37:40.316Z,2.05
2022-09-12T12:40:23.022Z,1.75
2022-09-12T12:42:50.526Z,1.88
2022-09-12T12:45:18.044Z,1.60
2022-09-12T12:47:57.453Z,1.55
2022-09-12T12:50:27.017Z,1.65
2022-09-12T12:53:14.900Z,1.70
2022-09-12T12:55:44.632Z,1.67
2022-09-12T12:58:36.315Z,1.80
2022-09-12T13:01:22.873Z,1.67
2022-09-12T13:03:58.165Z,1.70
2022-09-12T13:06:34.150Z,1.75
2022-09-12T13:09:19.630Z,2.03
2022-09-12T13:11:47.113Z,2.15
2022-09-12T13:14:51.847Z,1.73
2022-09-12T13:17:43.466Z,2.03
2022-09-12T13:20:29.448Z,1.90
2022-09-12T13:22:57.813Z,2.00
2022-09-12T13:25:31.817Z,2.10
2022-09-12T13:28:03.685Z,2.05
2022-09-12T13:30:36.730Z,2.10
2022-09-12T13:33:24.203Z,2.20
2022-09-12T13:36:09.993Z,1.88
2022-09-12T13:38:42.905Z,2.10
2022-09-12T13:41:33.851Z,2.38
2022-09-12T13:44:02.324Z,2.17
2022-09-12T13:46:32.457Z,2.30
2022-09-12T13:49:01.871Z,2.28
2022-09-12T13:51:31.491Z,2.35
2022-09-12T13:54:02.987Z,2.22
2022-09-12T13:56:29.928Z,1.90
2022-09-12T13:58:59.277Z,2.20
2022-09-12T14:01:41.595Z,2.03
2022-09-12T14:04:44.518Z,2.28
2022-09-12T14:07:17.327Z,1.60
2022-09-12T14:09:52.374Z,1.85
2022-09-12T14:12:36.566Z,1.92
2022-09-12T14:15:03.905Z,1.60
2022-09-12T14:17:36.332Z,1.80
2022-09-12T14:20:13.528Z,1.55
2022-09-12T14:22:41.588Z,2.10
2022-09-12T14:25:16.302Z,1.80
2022-09-12T14:27:51.204Z,1.98
2022-09-12T14:30:36.770Z,1.80
2022-09-12T14:33:10.969Z,1.90
2022-09-12T14:35:43.387Z,2.08
2022-09-12T14:38:17.344Z,2.00
2022-09-12T14:40:50.688Z,1.70
2022-09-12T14:43:25.144Z,1.80
2022-09-12T14:46:05.627Z,1.80
2022-09-12T14:48:37.715Z,1.90
2022-09-12T14:51:05.384Z,1.65
2022-09-12T14:53:34.918Z,2.20
2022-09-12T14:56:14.370Z,2.60
2022-09-12T14:58:41.746Z,2.55
2022-09-12T15:01:08.562Z,2.53
2022-09-12T15:03:36.836Z,2.22
2022-09-12T15:06:08.042Z,2.50
2022-09-12T15:08:34.887Z,2.90
2022-09-12T15:11:01.669Z,2.83
2022-09-12T15:13:30.763Z,3.22
2022-09-12T15:15:59.893Z,2.50
2022-09-12T15:18:28.745Z,2.90
2022-09-12T15:21:04.781Z,2.75
2022-09-12T15:23:36.288Z,2.58
2022-09-12T15:26:03.907Z,2.78
2022-09-12T15:28:31.843Z,2.38
2022-09-12T15:31:04.648Z,2.53
2022-09-12T15:33:31.347Z,2.67
2022-09-12T15:35:58.010Z,2.75
2022-09-12T15:38:26.682Z,2.65
2022-09-12T15:40:54.483Z,2.50
2022-09-12T15:43:22.545Z,3.10
2022-09-12T15:45:53.315Z,2.60
2022-09-12T15:48:21.106Z,3.00
2022-09-12T15:50:48.540Z,3.05
2022-09-12T15:53:16.896Z,3.08
2022-09-12T15:55:44.618Z,2.92
2022-09-12T15:58:11.819Z,2.70
2022-09-12T16:00:38.808Z,2.70
2022-09-12T16:03:05.648Z,2.88
2022-09-12T16:05:32.698Z,2.90
2022-09-12T16:07:59.528Z,2.55
2022-09-12T16:10:30.235Z,3.10
2022-09-12T16:12:57.613Z,3.13
2022-09-12T16:15:26.072Z,3.30
2022-09-12T16:17:53.336Z,3.00
2022-09-12T16:20:20.943Z,3.00
2022-09-12T16:22:48.136Z,4.70
2022-09-12T16:25:14.986Z,4.95
2022-09-12T16:27:41.770Z,4.30
2022-09-12T16:30:09.577Z,3.65
2022-09-12T16:32:37.010Z,3.40
2022-09-12T16:35:04.578Z,3.35
2022-09-12T16:37:32.294Z,3.13
2022-09-12T16:39:59.152Z,3.40
2022-09-12T16:42:25.962Z,3.33
2022-09-12T16:44:52.619Z,3.33
2022-09-12T16:47:19.810Z,3.40
2022-09-12T16:49:46.517Z,3.55
2022-09-12T16:52:16.468Z,3.58
2022-09-12T16:54:44.433Z,3.30
2022-09-12T16:57:11.861Z,4.15
2022-09-12T16:59:38.597Z,3.50
2022-09-12T17:02:05.425Z,4.20
2022-09-12T17:04:32.209Z,4.35
2022-09-12T17:06:59.522Z,4.00
2022-09-12T17:09:28.118Z,4.47
2022-09-12T17:11:55.491Z,5.15
2022-09-12T17:14:22.291Z,4.38
2022-09-12T17:16:51.826Z,5.22
2022-09-12T17:19:29.991Z,5.28
2022-09-12T17:21:57.355Z,5.32
2022-09-12T17:24:24.561Z,5.28
2022-09-12T17:26:53.590Z,5.03
2022-09-12T17:29:21.206Z,5.40
2022-09-12T17:31:49.271Z,5.88
2022-09-12T17:34:18.001Z,9.98
2022-09-12T17:36:46.362Z,14.60
2022-09-12T17:39:14.586Z,19.40
2022-09-12T17:41:43.184Z,20.45
2022-09-12T17:44:15.509Z,20.08
2022-09-12T17:46:43.518Z,19.35
2022-09-12T17:49:16.285Z,18.48
2022-09-12T17:51:44.345Z,17.15
2022-09-12T17:54:15.977Z,14.73
2022-09-12T17:56:45.683Z,15.32
2022-09-12T17:59:19.692Z,16.17
2022-09-12T18:02:05.958Z,14.73
2022-09-12T18:04:33.121Z,14.52
2022-09-12T18:07:00.800Z,14.18
2022-09-12T18:09:28.550Z,14.57
2022-09-12T18:11:55.611Z,16.70
2022-09-12T18:14:23.513Z,17.63
2022-09-12T18:16:51.029Z,16.90
2022-09-12T18:19:18.951Z,16.40
2022-09-12T18:21:47.250Z,16.25
2022-09-12T18:24:14.413Z,14.32
2022-09-12T18:26:43.986Z,14.20
2022-09-12T18:29:11.925Z,14.70
2022-09-12T18:31:39.249Z,15.98
2022-09-12T18:34:08.092Z,37.28
2022-09-12T18:36:35.028Z,74.10
2022-09-12T18:39:02.061Z,92.25
2022-09-12T18:41:29.422Z,94.47
2022-09-12T18:43:58.461Z,91.95
2022-09-12T18:46:26.639Z,86.75
2022-09-12T18:48:58.058Z,92.45
2022-09-12T18:51:31.830Z,116.03
2022-09-12T18:54:03.402Z,152.95
2022-09-12T18:56:33.300Z,149.32
2022-09-12T18:59:02.486Z,149.98
2022-09-12T19:01:32.319Z,145.43
2022-09-12T19:04:01.416Z,136.95
2022-09-12T19:06:35.402Z,135.95
2022-09-12T19:09:07.578Z,132.07
2022-09-12T19:11:37.307Z,126.70
2022-09-12T19:14:04.805Z,114.67
2022-09-12T19:16:31.987Z,105.00
2022-09-12T19:18:59.724Z,100.77
2022-09-12T19:21:29.071Z,91.27
2022-09-12T19:23:58.415Z,84.37
2022-09-12T19:26:26.026Z,76.80
2022-09-12T19:28:53.855Z,74.57
2022-09-12T19:31:21.833Z,68.20
2022-09-12T19:33:49.618Z,60.57
2022-09-12T19:36:43.348Z,57.67
2022-09-12T19:39:06.720Z,58.17
2022-09-12T19:41:33.561Z,61.17
2022-09-12T19:44:00.435Z,58.97
2022-09-12T19:46:27.868Z,56.10
2022-09-12T19:48:54.742Z,52.57
2022-09-12T19:51:22.443Z,53.07
2022-09-12T19:53:50.330Z,48.50
2022-09-12T19:56:17.307Z,43.00
2022-09-12T19:58:46.681Z,44.00
2022-09-12T20:01:18.168Z,41.70
2022-09-12T20:03:45.846Z,41.93
2022-09-12T20:06:15.873Z,42.67
2022-09-12T20:08:43.975Z,42.97
2022-09-12T20:11:13.107Z,39.67
2022-09-12T20:13:40.306Z,35.43
2022-09-12T20:16:15.014Z,34.03
2022-09-12T20:18:45.822Z,33.93
2022-09-12T20:21:19.898Z,32.20
2022-09-12T20:23:46.986Z,32.10
2022-09-12T20:26:14.010Z,29.53
2022-09-12T20:28:42.135Z,28.80
2022-09-12T20:31:14.874Z,29.33
2022-09-12T20:33:41.769Z,28.43
2022-09-12T20:36:12.231Z,28.23
2022-09-12T20:38:39.900Z,28.53
2022-09-12T20:41:08.297Z,29.03
2022-09-12T20:43:35.460Z,28.67
2022-09-12T20:46:10.346Z,29.97
2022-09-12T20:48:40.136Z,30.27
2022-09-12T20:51:07.311Z,30.97
2022-09-12T20:53:35.197Z,31.97
2022-09-12T20:56:03.008Z,32.30
2022-09-12T20:58:29.685Z,32.37
2022-09-12T21:00:56.786Z,29.83
2022-09-12T21:03:23.580Z,28.60
2022-09-12T21:05:50.213Z,27.20
2022-09-12T21:08:17.248Z,26.00
2022-09-12T21:10:44.540Z,26.43
2022-09-12T21:13:12.088Z,26.97
2022-09-12T21:15:40.266Z,28.40
2022-09-12T21:18:07.699Z,28.20
2022-09-12T21:20:34.774Z,27.00
2022-09-12T21:23:01.707Z,28.07
2022-09-12T21:25:29.183Z,30.47
2022-09-12T21:27:56.035Z,29.57
2022-09-12T21:30:22.941Z,28.00
2022-09-12T21:32:49.732Z,26.40
2022-09-12T21:35:16.663Z,24.33
2022-09-12T21:37:43.396Z,24.67
2022-09-12T21:40:10.487Z,23.23
2022-09-12T21:42:37.449Z,22.73
2022-09-12T21:45:04.558Z,21.90
2022-09-12T21:47:31.265Z,20.00
2022-09-12T21:49:58.484Z,20.80
2022-09-12T21:52:25.359Z,20.13
2022-09-12T21:54:52.070Z,19.43
2022-09-12T21:57:18.732Z,19.40
2022-09-12T21:59:45.580Z,18.57
2022-09-12T22:02:12.473Z,17.97
2022-09-12T22:04:39.341Z,17.83
2022-09-12T22:07:06.288Z,17.03
2022-09-12T22:09:34.407Z,16.80
2022-09-12T22:12:02.236Z,16.23
2022-09-12T22:14:29.518Z,16.60
2022-09-12T22:16:56.779Z,15.47
2022-09-12T22:19:23.561Z,15.73
2022-09-12T22:22:08.969Z,15.17
2022-09-12T22:24:35.767Z,14.70
2022-09-12T22:27:05.377Z,15.20
2022-09-12T22:29:32.912Z,14.40
2022-09-12T22:32:00.822Z,13.97
2022-09-12T22:34:28.739Z,13.97
2022-09-12T22:36:55.907Z,12.67
2022-09-12T22:39:23.532Z,12.50
2022-09-12T22:41:50.906Z,11.20
2022-09-12T22:44:17.871Z,11.57
2022-09-12T22:46:45.170Z,11.20
2022-09-12T22:49:12.793Z,11.50
2022-09-12T22:51:40.166Z,11.20
2022-09-12T22:54:09.024Z,12.07
2022-09-12T22:56:35.713Z,12.53
2022-09-12T22:59:02.537Z,13.70
2022-09-12T23:01:30.268Z,17.33
2022-09-12T23:04:16.506Z,19.70
2022-09-12T23:06:43.185Z,20.13
2022-09-12T23:09:09.868Z,18.47
2022-09-12T23:11:37.111Z,15.03
2022-09-12T23:14:03.786Z,12.70
2022-09-12T23:16:32.099Z,11.30
2022-09-12T23:18:58.932Z,11.63
2022-09-12T23:21:25.775Z,10.60
2022-09-12T23:23:52.593Z,11.10
2022-09-12T23:26:24.888Z,9.90
2022-09-12T23:28:53.931Z,10.00
2022-09-12T23:31:21.849Z,10.20
2022-09-12T23:33:50.100Z,11.00
2022-09-12T23:36:16.777Z,9.83
2022-09-12T23:38:45.337Z,10.03
2022-09-12T23:41:14.391Z,10.17
2022-09-12T23:43:42.923Z,10.03
2022-09-12T23:46:09.785Z,9.70
2022-09-12T23:48:36.600Z,10.50
2022-09-12T23:51:03.339Z,9.70
2022-09-12T23:53:30.151Z,10.20
2022-09-12T23:55:57.192Z,9.00
2022-09-12T23:58:24.055Z,9.53
